Data for 04/05/2013

Time Sea-Level Adjusted Pressure Absolute Pressure Temperature Relative Humidity Dew Point   
(mb) (inHg) (mb) (inHg) (C) (F) (%) (C) (F)
00:05 1012 29.88 841 24.83 11.3 52.4 57 3.2 37.7
00:10 1012 29.88 841 24.83 11.7 53 50 1.7 35.1
00:15 1012 29.88 841 24.83 12.2 53.9 50 2 35.6
00:20 1012 29.88 841 24.83 12 53.6 52 2.5 36.5
00:25 1012 29.88 841 24.83 11.8 53.3 51 2.1 35.8
00:30 1012 29.88 841 24.83 11.8 53.2 51 2 35.6
00:35 1012 29.88 841 24.83 11.9 53.5 47 1 33.9
00:40 1012 29.88 841 24.83 11.9 53.5 49 1.6 34.9
00:45 1012 29.88 841 24.83 11.7 53.1 49 1.5 34.7
00:50 1012 29.88 841 24.83 11.7 53 49 1.4 34.6
00:55 1012 29.88 841 24.83 11.6 52.8 50 1.4 34.5
01:00 1012 29.88 841 24.83 11.4 52.5 50 1.5 34.6
01:05 1012 29.88 841 24.83 11.2 52.1 52 1.7 35.1
01:10 1012 29.88 841 24.83 11 51.7 53 1.8 35.3
01:15 1012 29.88 841 24.83 10.8 51.4 53 1.6 34.8
01:20 1012 29.88 841 24.83 10.7 51.3 54 1.8 35.3
01:25 1012 29.88 841 24.83 10.5 51 54 1.7 35.1
01:30 1012 29.88 841 24.83 10.3 50.6 55 1.6 34.9
01:35 1012 29.88 841 24.83 10.3 50.5 53 1.3 34.3
01:40 1011 29.85 841 24.83 10.4 50.6 54 1.4 34.6
01:45 1011 29.85 841 24.83 10.4 50.6 54 1.4 34.5
01:50 1011 29.85 841 24.83 10.5 50.9 51 0.9 33.7
01:55 1011 29.85 841 24.83 10.7 51.2 53 1.5 34.7
02:00 1011 29.85 840 24.81 10.7 51.2 52 1.2 34.2
02:05 1011 29.85 840 24.81 10.6 51.1 50 0.8 33.4
02:10 1011 29.85 840 24.81 10.9 51.7 50 0.9 33.6
02:15 1011 29.85 840 24.81 10.9 51.5 50 1 33.8
02:20 1011 29.85 840 24.81 10.8 51.4 50 0.9 33.7
02:25 1011 29.85 840 24.81 10.9 51.7 50 1 33.8
02:30 1011 29.85 840 24.81 11 51.8 50 1 33.8
02:35 1011 29.85 840 24.81 11.2 52.1 49 0.9 33.6
02:40 1011 29.85 840 24.81 11.1 52 50 1.3 34.3
02:45 1011 29.85 840 24.81 10.8 51.5 53 1.6 34.9
02:50 1011 29.85 840 24.81 10.5 51 56 2.1 35.7
02:55 1011 29.85 840 24.81 10.2 50.3 55 1.6 34.9
03:00 1011 29.85 840 24.81 10 50 55 1.5 34.7
03:05 1011 29.85 840 24.81 9.5 49.1 59 1.8 35.3
03:10 1011 29.85 840 24.81 9 48.3 61 1.9 35.5
03:15 1010 29.83 840 24.81 8.8 47.9 60 1.6 34.9
03:20 1010 29.83 840 24.81 8.7 47.7 61 1.7 35.1
03:25 1011 29.85 840 24.81 8.6 47.5 63 1.9 35.5
03:30 1011 29.85 840 24.81 8.5 47.2 62 1.7 35
03:35 1011 29.85 840 24.81 8.2 46.8 62 1.5 34.7
03:40 1011 29.85 840 24.81 8.2 46.7 62 1.2 34.2
03:45 1011 29.85 840 24.81 8.4 47 60 1 33.9
03:50 1010 29.83 840 24.81 8.7 47.6 57 0.5 32.9
03:55 1010 29.83 840 24.81 8.7 47.7 58 1 33.7
04:00 1011 29.85 840 24.81 8.6 47.5 60 1.4 34.4
04:05 1011 29.85 840 24.81 8.3 47 61 1.2 34.1
04:10 1011 29.85 840 24.81 8.3 46.9 60 1 33.8
04:15 1011 29.85 840 24.81 8.3 46.9 60 0.9 33.7
04:20 1010 29.83 840 24.81 8.1 46.6 60 1 33.8
04:25 1010 29.83 840 24.81 8.2 46.8 58 0.5 32.9
04:30 1011 29.85 840 24.81 8.6 47.4 58 0.8 33.5
04:35 1011 29.85 840 24.81 8.6 47.4 57 0.6 33
04:40 1011 29.85 840 24.81 8.7 47.6 58 0.8 33.5
04:45 1011 29.85 840 24.81 8.4 47.2 59 0.9 33.6
04:50 1011 29.85 840 24.81 8.3 46.9 59 0.8 33.4
04:55 1011 29.85 840 24.81 8.6 47.4 58 0.9 33.6
05:00 1011 29.85 840 24.81 8.4 47.2 59 0.9 33.7
05:05 1011 29.85 840 24.81 8.3 47 60 1 33.8
05:10 1011 29.85 840 24.81 8.3 47 59 0.7 33.3
05:15 1011 29.85 840 24.81 8.8 47.8 58 0.9 33.6
05:20 1011 29.85 840 24.81 9.1 48.4 59 1.5 34.7
05:25 1011 29.85 840 24.81 8.7 47.7 62 1.9 35.4
05:30 1011 29.85 840 24.81 8 46.3 65 1.8 35.2
05:35 1011 29.85 840 24.81 7.8 46.1 63 1.2 34.2
05:40 1011 29.85 840 24.81 8.1 46.5 63 1.4 34.5
05:45 1011 29.85 840 24.81 8.1 46.6 61 1 33.9
05:50 1011 29.85 840 24.81 8.4 47.1 59 0.9 33.6
05:55 1011 29.85 840 24.81 8.6 47.5 58 1 33.7
06:00 1011 29.85 840 24.81 8.8 47.9 57 0.8 33.5
06:05 1011 29.85 840 24.81 8.9 48.1 58 1.2 34.1
06:10 1011 29.85 840 24.81 8.8 47.9 60 1.4 34.6
06:15 1011 29.85 840 24.81 8.6 47.5 60 1.3 34.4
06:20 1011 29.85 840 24.81 8.4 47.2 62 1.6 34.9
06:25 1011 29.85 840 24.81 8.4 47.2 64 2 35.6
06:30 1011 29.85 840 24.81 8.8 47.9 59 1.4 34.5
06:35 1011 29.85 841 24.83 9.2 48.6 61 2.1 35.8
06:40 1011 29.85 841 24.83 9.1 48.3 66 3.2 37.7
06:45 1012 29.88 841 24.83 8.6 47.5 67 2.9 37.2
06:50 1012 29.88 841 24.83 8.5 47.3 68 2.9 37.3
06:55 1012 29.88 841 24.83 8.4 47.1 71 3.4 38
07:00 1012 29.88 841 24.83 8.2 46.8 71 3.3 38
07:05 1012 29.88 841 24.83 8 46.3 73 3.4 38.2
07:10 1012 29.88 841 24.83 7.7 45.9 72 2.9 37.3
07:15 1012 29.88 841 24.83 7.6 45.7 73 3.1 37.5
07:20 1012 29.88 841 24.83 7.5 45.4 74 3.1 37.5
07:25 1012 29.88 841 24.83 7.3 45.1 75 3.2 37.7
07:30 1012 29.88 841 24.83 7.2 44.9 76 3.3 37.9
07:35 1012 29.88 841 24.83 7.1 44.7 76 3.2 37.8
07:40 1012 29.88 841 24.83 7.1 44.7 76 3.2 37.7
07:45 1012 29.88 841 24.83 6.9 44.4 79 3.5 38.3
07:50 1012 29.88 841 24.83 6.8 44.2 81 3.7 38.7
07:55 1012 29.88 841 24.83 6.7 44.1 80 3.6 38.4
08:00 1012 29.88 841 24.83 6.6 44 81 3.6 38.6
08:05 1012 29.88 841 24.83 6.7 44.1 81 3.6 38.5
08:10 1012 29.88 841 24.83 6.8 44.2 80 3.5 38.3
08:15 1012 29.88 841 24.83 6.9 44.5 79 3.5 38.4
08:20 1012 29.88 841 24.83 7 44.6 79 3.6 38.5
08:25 1012 29.88 841 24.83 7 44.6 80 3.7 38.7
08:30 1012 29.88 841 24.83 7 44.6 78 3.4 38.1
08:35 1012 29.88 841 24.83 7.1 44.7 78 3.5 38.3
08:40 1012 29.88 841 24.83 7 44.6 80 3.8 38.9
08:45 1012 29.88 841 24.83 6.8 44.2 82 4 39.2
08:50 1012 29.88 841 24.83 6.7 44 82 3.9 39
08:55 1012 29.88 841 24.83 6.7 44.1 83 4 39.2
09:00 1012 29.88 841 24.83 6.8 44.3 83 4.1 39.3
09:05 1012 29.88 841 24.83 6.9 44.5 80 3.8 38.8
09:10 1012 29.88 841 24.83 6.7 44 80 3.5 38.3
09:15 1012 29.88 841 24.83 6.6 43.9 81 3.6 38.6
09:20 1012 29.88 841 24.83 6.7 44.1 82 3.9 39
09:25 1012 29.88 841 24.83 7.2 45 82 4.3 39.8
09:30 1012 29.88 841 24.83 7.7 45.9 77 4 39.2
09:35 1012 29.88 841 24.83 8 46.3 76 4.1 39.4
09:40 1012 29.88 841 24.83 8.1 46.5 74 3.8 38.8
09:45 1012 29.88 841 24.83 8.2 46.7 73 3.6 38.5
09:50 1012 29.88 841 24.83 8.2 46.7 72 3.5 38.4
09:55 1012 29.88 841 24.83 8.3 47 73 3.7 38.6
10:00 1012 29.88 841 24.83 8.4 47.1 70 3.3 37.9
10:05 1012 29.88 841 24.83 8.4 47.2 71 3.4 38.2
10:10 1012 29.88 841 24.83 8.6 47.4 69 3.2 37.7
10:15 1012 29.88 841 24.83 8.5 47.2 69 3 37.5
10:20 1012 29.88 841 24.83 8.6 47.5 70 3.4 38.2
10:25 1012 29.88 841 24.83 8.7 47.6 70 3.5 38.3
10:30 1012 29.88 841 24.83 8.7 47.6 70 3.5 38.3
10:35 1012 29.88 841 24.83 8.7 47.6 69 3.3 38
10:40 1012 29.88 841 24.83 8.7 47.7 71 3.8 38.8
10:45 1012 29.88 841 24.83 8.6 47.5 70 3.4 38.2
10:50 1012 29.88 841 24.83 8.6 47.4 67 2.9 37.3
10:55 1012 29.88 841 24.83 8.6 47.5 67 2.8 37
11:00 1012 29.88 841 24.83 8.7 47.6 67 2.9 37.1
11:05 1012 29.88 841 24.83 8.7 47.6 64 2.3 36.2
11:10 1012 29.88 841 24.83 8.7 47.7 64 2.4 36.3
11:15 1012 29.88 841 24.83 8.7 47.6 65 2.6 36.6
11:20 1012 29.88 841 24.83 8.7 47.6 66 2.6 36.7
11:25 1012 29.88 841 24.83 8.9 48.1 65 2.8 37
11:30 1012 29.88 841 24.83 9.2 48.6 60 1.8 35.3
11:35 1012 29.88 841 24.83 9.2 48.5 63 2.4 36.4
11:40 1012 29.88 841 24.83 9.1 48.3 61 2 35.6
11:45 1012 29.88 841 24.83 8.8 47.8 66 2.7 36.9
11:50 1011 29.85 841 24.83 9.3 48.7 59 1.7 35.1
11:55 1011 29.85 841 24.83 9.6 49.3 58 1.9 35.4
12:00 1011 29.85 841 24.83 9.3 48.8 59 1.7 35
12:05 1011 29.85 841 24.83 9.4 49 57 1.5 34.6
12:10 1011 29.85 841 24.83 9.3 48.7 56 1.1 34
12:15 1011 29.85 841 24.83 9.3 48.7 57 1.3 34.4
12:20 1011 29.85 841 24.83 9.2 48.6 58 1.4 34.4
12:25 1011 29.85 840 24.81 9.9 49.7 56 1.4 34.6
12:30 1011 29.85 840 24.81 9.7 49.4 59 2.1 35.7
12:35 1011 29.85 840 24.81 8.8 47.9 62 1.9 35.3
12:40 1011 29.85 840 24.81 8.5 47.2 64 2 35.6
12:45 1011 29.85 840 24.81 8.3 47 63 1.6 34.9
12:50 1011 29.85 840 24.81 8.5 47.4 60 1.3 34.4
12:55 1011 29.85 840 24.81 8.5 47.4 60 1.3 34.3
13:00 1011 29.85 840 24.81 8.7 47.6 58 1 33.8
13:05 1011 29.85 840 24.81 8.7 47.7 61 1.6 34.9
13:10 1011 29.85 840 24.81 8.8 47.8 59 1.3 34.4
13:15 1011 29.85 840 24.81 8.7 47.7 59 1.2 34.1
13:20 1011 29.85 840 24.81 9 48.2 59 1.5 34.8
13:25 1011 29.85 840 24.81 9.1 48.4 58 1.2 34.2
13:30 1011 29.85 840 24.81 9.2 48.5 56 0.9 33.6
13:35 1011 29.85 840 24.81 9.4 48.8 55 0.8 33.5
13:40 1011 29.85 840 24.81 9.7 49.5 55 1.2 34.2
13:45 1011 29.85 840 24.81 9.8 49.7 55 1.2 34.2
13:50 1011 29.85 840 24.81 9.7 49.4 57 1.5 34.8
13:55 1011 29.85 840 24.81 9.7 49.4 53 0.7 33.3
14:00 1011 29.85 840 24.81 9.9 49.9 51 0.3 32.5
14:05 1011 29.85 840 24.81 10 49.9 50 0.1 32.1
14:10 1011 29.85 840 24.81 10.4 50.6 49 0.1 32.2
14:15 1011 29.85 840 24.81 10.5 50.8 46 -0.7 30.7
14:20 1011 29.85 840 24.81 10.7 51.3 47 -0.1 31.8
14:25 1011 29.85 840 24.81 10.4 50.8 47 -0.3 31.5
14:30 1011 29.85 840 24.81 10.9 51.6 44 -0.7 30.8
14:35 1011 29.85 840 24.81 10.9 51.7 46 -0.2 31.7
14:40 1011 29.85 840 24.81 10.5 50.8 48 0.1 32.2
14:45 1011 29.85 840 24.81 10.3 50.5 48 -0.3 31.5
14:50 1011 29.85 840 24.81 10.1 50.1 48 -0.5 31.1
14:55 1011 29.85 840 24.81 10 50.1 48 -0.4 31.3
15:00 1011 29.85 840 24.81 10.2 50.3 48 -0.2 31.6
15:05 1011 29.85 840 24.81 10.3 50.6 47 -0.5 31.1
15:10 1011 29.85 840 24.81 10.4 50.7 50 0.5 33
15:15 1011 29.85 840 24.81 10.5 50.9 46 -0.5 31.1
15:20 1011 29.85 840 24.81 10.8 51.5 47 -0 32
15:25 1011 29.85 840 24.81 11 51.8 46 -0 31.9
15:30 1011 29.85 840 24.81 11.1 52 45 -0.3 31.4
15:35 1011 29.85 840 24.81 11.2 52.2 45 -0.2 31.6
15:40 1011 29.85 840 24.81 11.2 52.2 45 -0.1 31.8
15:45 1011 29.85 840 24.81 11.1 51.9 45 -0.3 31.5
15:50 1011 29.85 840 24.81 11.1 52 45 -0.2 31.7
15:55 1011 29.85 840 24.81 11.3 52.4 39 -2.2 28.1
16:00 1011 29.85 840 24.81 11.3 52.3 36 -3.1 26.4
16:05 1011 29.85 840 24.81 11.5 52.8 39 -1.9 28.6
16:10 1011 29.85 841 24.83 11.2 52.1 37 -2.8 27
16:15 1011 29.85 841 24.83 11.3 52.4 38 -2.6 27.3
16:20 1011 29.85 841 24.83 11.7 53 36 -2.7 27.2
16:25 1012 29.88 841 24.83 12.3 54.2 34 -3.2 26.3
16:30 1012 29.88 841 24.83 12.3 54.1 33 -3.4 25.9
16:35 1012 29.88 841 24.83 12.6 54.7 33 -3.3 26.1
16:40 1012 29.88 841 24.83 12.2 53.9 37 -1.9 28.5
16:45 1012 29.88 841 24.83 11 51.8 39 -2.2 28
16:50 1012 29.88 841 24.83 11 51.8 38 -2.8 26.9
16:55 1012 29.88 841 24.83 11 51.9 40 -2.1 28.3
17:00 1012 29.88 841 24.83 10.4 50.7 46 -0.5 31.1
17:05 1011 29.85 841 24.83 10.1 50.1 46 -1.1 30.1
17:10 1012 29.88 841 24.83 10.1 50.1 47 -0.6 30.8
17:15 1012 29.88 841 24.83 10.1 50.1 46 -1.1 30
17:20 1012 29.88 841 24.83 10.4 50.7 45 -0.9 30.3
17:25 1012 29.88 841 24.83 10.7 51.2 44 -0.9 30.3
17:30 1012 29.88 841 24.83 10.8 51.5 45 -0.5 31
17:35 1012 29.88 841 24.83 11 51.8 44 -0.9 30.5
17:40 1012 29.88 841 24.83 11.3 52.3 41 -1.4 29.5
17:45 1012 29.88 841 24.83 11.4 52.4 42 -0.9 30.3
17:50 1012 29.88 841 24.83 11.2 52.2 42 -1.1 30.1
17:55 1012 29.88 841 24.83 11 51.7 43 -1.2 29.8
18:00 1012 29.88 841 24.83 10.9 51.6 43 -1.1 30
18:05 1012 29.88 841 24.83 10.8 51.5 43 -1.1 30.1
18:10 1012 29.88 841 24.83 10.7 51.3 44 -0.9 30.4
18:15 1012 29.88 841 24.83 10.6 51.2 45 -0.8 30.6
18:20 1012 29.88 841 24.83 10.8 51.4 44 -0.9 30.4
18:25 1012 29.88 841 24.83 10.8 51.5 44 -0.8 30.6
18:30 1012 29.88 841 24.83 10.8 51.4 42 -1.4 29.4
18:35 1012 29.88 841 24.83 10.7 51.2 41 -1.8 28.7
18:40 1012 29.88 841 24.83 10.6 51 41 -2 28.4
18:45 1012 29.88 841 24.83 10.5 50.9 41 -2.2 28.1
18:50 1012 29.88 841 24.83 10.4 50.8 42 -1.8 28.8
18:55 1012 29.88 841 24.83 10.4 50.6 42 -2.1 28.2
19:00 1012 29.88 841 24.83 10.4 50.7 41 -2.2 28
19:05 1012 29.88 841 24.83 10.4 50.8 40 -2.4 27.6
19:10 1012 29.88 841 24.83 10.5 50.9 41 -2.2 28
19:15 1012 29.88 841 24.83 10.4 50.7 42 -1.8 28.7
19:20 1012 29.88 841 24.83 10.3 50.6 41 -2.3 27.8
19:25 1012 29.88 842 24.86 10.3 50.6 41 -2.4 27.7
19:30 1012 29.88 842 24.86 10.3 50.6 38 -3.5 25.7
19:35 1013 29.91 842 24.86 10.5 50.8 40 -2.5 27.6
19:40 1013 29.91 842 24.86 10.4 50.6 40 -2.5 27.5
19:45 1013 29.91 842 24.86 10.2 50.4 40 -2.7 27.1
19:50 1013 29.91 842 24.86 10.1 50.2 39 -3.1 26.4
19:55 1013 29.91 842 24.86 10.1 50.1 39 -3.1 26.4
20:00 1013 29.91 842 24.86 10 50.1 40 -2.8 26.9
20:05 1013 29.91 842 24.86 9.9 49.8 40 -3.1 26.4
20:10 1013 29.91 842 24.86 9.9 49.9 36 -4.6 23.8
20:15 1013 29.91 842 24.86 10.1 50.2 34 -5.2 22.6
20:20 1013 29.91 842 24.86 10.2 50.3 34 -5.1 22.9
20:25 1013 29.91 842 24.86 10 50.1 35 -4.9 23.2
20:30 1013 29.91 843 24.89 9.9 49.8 36 -4.7 23.6
20:35 1013 29.91 843 24.89 9.8 49.6 36 -4.6 23.8
20:40 1014 29.94 843 24.89 9.6 49.3 37 -4.5 23.9
20:45 1014 29.94 843 24.89 9.5 49.1 37 -4.3 24.2
20:50 1014 29.94 843 24.89 9.4 48.8 38 -4.1 24.6
20:55 1014 29.94 843 24.89 9.3 48.7 39 -4 24.8
21:00 1014 29.94 843 24.89 9.2 48.5 40 -3.8 25.2
21:05 1014 29.94 843 24.89 9 48.3 40 -3.7 25.4
21:10 1014 29.94 843 24.89 8.9 48.1 41 -3.8 25.2
21:15 1014 29.94 843 24.89 8.8 47.8 41 -3.7 25.4
21:20 1014 29.94 843 24.89 8.6 47.6 42 -3.5 25.7
21:25 1014 29.94 843 24.89 8.5 47.2 43 -3.5 25.7
21:30 1014 29.94 843 24.89 8.4 47 44 -3.3 26.1
21:35 1014 29.94 843 24.89 8.2 46.8 44 -3.3 26.1
21:40 1014 29.94 843 24.89 8.3 46.9 44 -3.3 26.1
21:45 1014 29.94 843 24.89 8.3 46.9 44 -3.2 26.2
21:50 1014 29.94 843 24.89 8.3 46.9 44 -3.1 26.4
21:55 1014 29.94 843 24.89 8.2 46.8 45 -3.1 26.5
22:00 1014 29.94 843 24.89 8.2 46.7 45 -2.9 26.7
22:05 1014 29.94 843 24.89 8.1 46.5 46 -2.8 27
22:10 1014 29.94 843 24.89 8 46.3 47 -2.7 27.1
22:15 1014 29.94 844 24.92 7.8 46.1 47 -2.7 27.1
22:20 1014 29.94 844 24.92 7.8 46 47 -2.9 26.8
22:25 1014 29.94 844 24.92 7.8 46 47 -2.9 26.8
22:30 1015 29.97 844 24.92 7.7 45.9 48 -2.6 27.3
22:35 1015 29.97 844 24.92 7.3 45.1 50 -2.4 27.6
22:40 1015 29.97 844 24.92 6.9 44.3 50 -2.8 27
22:45 1015 29.97 844 24.92 6.6 43.9 50 -3 26.5
22:50 1015 29.97 844 24.92 6.8 44.2 50 -3 26.5
22:55 1015 29.97 844 24.92 6.7 44.1 50 -2.9 26.7
23:00 1015 29.97 844 24.92 6.8 44.2 49 -3.1 26.4
23:05 1015 29.97 844 24.92 6.8 44.3 48 -3.5 25.7
23:10 1015 29.97 844 24.92 7.1 44.9 47 -3.4 25.9
23:15 1015 29.97 844 24.92 7.2 45 47 -3.4 25.9
23:20 1015 29.97 844 24.92 7.2 45 47 -3.4 26
23:25 1015 29.97 844 24.92 7.2 44.9 47 -3.4 26
23:30 1015 29.97 844 24.92 7.2 45 47 -3.3 26.1
23:35 1015 29.97 844 24.92 7.2 44.9 47 -3.2 26.2
23:40 1015 29.97 844 24.92 7.1 44.9 48 -3.1 26.5
23:45 1015 29.97 844 24.92 7 44.6 49 -3 26.7
23:50 1015 29.97 844 24.92 6.9 44.5 50 -2.9 26.8
23:55 1015 29.97 844 24.92 6.9 44.4 50 -2.9 26.7
24:00 1015 29.97 844 24.92 6.9 44.3 50 -3 26.7